sensor_id;sensor_type;location;lat;lon;timestamp;P1;durP1;ratioP1;P2;durP2;ratioP2
10191;SDS011;17580;50.850;4.504;2022-12-29T00:01:33;1.33;;;1.23;;
10191;SDS011;17580;50.850;4.504;2022-12-29T00:04:00;1.40;;;1.03;;
10191;SDS011;17580;50.850;4.504;2022-12-29T00:06:27;1.20;;;1.20;;
10191;SDS011;17580;50.850;4.504;2022-12-29T00:08:54;1.30;;;1.20;;
10191;SDS011;17580;50.850;4.504;2022-12-29T00:11:23;1.77;;;1.67;;
10191;SDS011;17580;50.850;4.504;2022-12-29T00:13:51;2.27;;;1.10;;
10191;SDS011;17580;50.850;4.504;2022-12-29T00:16:37;1.70;;;1.33;;
10191;SDS011;17580;50.850;4.504;2022-12-29T00:19:06;1.57;;;1.07;;
10191;SDS011;17580;50.850;4.504;2022-12-29T00:21:54;1.10;;;1.10;;
10191;SDS011;17580;50.850;4.504;2022-12-29T00:24:38;2.23;;;1.10;;
10191;SDS011;17580;50.850;4.504;2022-12-29T00:27:25;1.10;;;1.10;;
10191;SDS011;17580;50.850;4.504;2022-12-29T00:30:10;1.83;;;1.30;;
10191;SDS011;17580;50.850;4.504;2022-12-29T00:33:04;1.30;;;1.00;;
10191;SDS011;17580;50.850;4.504;2022-12-29T00:35:56;1.70;;;1.10;;
10191;SDS011;17580;50.850;4.504;2022-12-29T00:38:26;1.00;;;1.00;;
10191;SDS011;17580;50.850;4.504;2022-12-29T00:41:11;1.50;;;1.10;;
10191;SDS011;17580;50.850;4.504;2022-12-29T00:43:57;2.00;;;1.30;;
10191;SDS011;17580;50.850;4.504;2022-12-29T00:46:35;2.97;;;1.17;;
10191;SDS011;17580;50.850;4.504;2022-12-29T00:49:03;1.03;;;1.00;;
10191;SDS011;17580;50.850;4.504;2022-12-29T00:51:48;4.67;;;0.97;;
10191;SDS011;17580;50.850;4.504;2022-12-29T00:54:16;2.10;;;1.53;;
10191;SDS011;17580;50.850;4.504;2022-12-29T00:56:45;1.23;;;1.23;;
10191;SDS011;17580;50.850;4.504;2022-12-29T00:59:13;1.90;;;1.03;;
10191;SDS011;17580;50.850;4.504;2022-12-29T01:01:40;1.40;;;1.30;;
10191;SDS011;17580;50.850;4.504;2022-12-29T01:04:08;2.30;;;1.03;;
10191;SDS011;17580;50.850;4.504;2022-12-29T01:06:35;1.20;;;1.10;;
10191;SDS011;17580;50.850;4.504;2022-12-29T01:09:03;2.07;;;1.00;;
10191;SDS011;17580;50.850;4.504;2022-12-29T01:11:49;2.73;;;0.90;;
10191;SDS011;17580;50.850;4.504;2022-12-29T01:14:18;1.77;;;1.10;;
10191;SDS011;17580;50.850;4.504;2022-12-29T01:16:46;2.03;;;1.13;;
10191;SDS011;17580;50.850;4.504;2022-12-29T01:19:13;3.90;;;1.50;;
10191;SDS011;17580;50.850;4.504;2022-12-29T01:21:40;1.07;;;1.07;;
10191;SDS011;17580;50.850;4.504;2022-12-29T01:24:08;2.90;;;1.43;;
10191;SDS011;17580;50.850;4.504;2022-12-29T01:26:35;2.23;;;1.13;;
10191;SDS011;17580;50.850;4.504;2022-12-29T01:29:02;1.57;;;1.20;;
10191;SDS011;17580;50.850;4.504;2022-12-29T01:31:30;2.43;;;1.20;;
10191;SDS011;17580;50.850;4.504;2022-12-29T01:33:57;1.40;;;1.17;;
10191;SDS011;17580;50.850;4.504;2022-12-29T01:36:24;1.67;;;1.20;;
10191;SDS011;17580;50.850;4.504;2022-12-29T01:38:51;2.57;;;1.30;;
10191;SDS011;17580;50.850;4.504;2022-12-29T01:41:18;1.20;;;1.20;;
10191;SDS011;17580;50.850;4.504;2022-12-29T01:43:46;2.10;;;1.80;;
10191;SDS011;17580;50.850;4.504;2022-12-29T01:46:25;1.77;;;1.17;;
10191;SDS011;17580;50.850;4.504;2022-12-29T01:48:57;2.43;;;1.20;;
10191;SDS011;17580;50.850;4.504;2022-12-29T01:51:29;1.60;;;1.43;;
10191;SDS011;17580;50.850;4.504;2022-12-29T01:53:57;1.40;;;1.30;;
10191;SDS011;17580;50.850;4.504;2022-12-29T01:56:28;2.80;;;1.37;;
10191;SDS011;17580;50.850;4.504;2022-12-29T01:58:59;1.10;;;1.10;;
10191;SDS011;17580;50.850;4.504;2022-12-29T02:01:29;1.40;;;1.03;;
10191;SDS011;17580;50.850;4.504;2022-12-29T02:03:57;1.40;;;0.93;;
10191;SDS011;17580;50.850;4.504;2022-12-29T02:06:26;0.77;;;0.77;;
10191;SDS011;17580;50.850;4.504;2022-12-29T02:08:58;0.77;;;0.77;;
10191;SDS011;17580;50.850;4.504;2022-12-29T02:11:26;1.43;;;0.80;;
10191;SDS011;17580;50.850;4.504;2022-12-29T02:13:55;2.63;;;0.97;;
10191;SDS011;17580;50.850;4.504;2022-12-29T02:16:33;0.73;;;0.73;;
10191;SDS011;17580;50.850;4.504;2022-12-29T02:22:11;0.77;;;0.77;;
10191;SDS011;17580;50.850;4.504;2022-12-29T02:24:59;0.93;;;0.70;;
10191;SDS011;17580;50.850;4.504;2022-12-29T02:27:58;1.33;;;0.70;;
10191;SDS011;17580;50.850;4.504;2022-12-29T02:30:44;0.70;;;0.67;;
10191;SDS011;17580;50.850;4.504;2022-12-29T02:33:21;0.80;;;0.80;;
10191;SDS011;17580;50.850;4.504;2022-12-29T02:35:58;1.70;;;0.67;;
10191;SDS011;17580;50.850;4.504;2022-12-29T02:38:37;2.33;;;0.70;;
10191;SDS011;17580;50.850;4.504;2022-12-29T02:41:15;1.10;;;0.90;;
10191;SDS011;17580;50.850;4.504;2022-12-29T02:43:49;0.70;;;0.70;;
10191;SDS011;17580;50.850;4.504;2022-12-29T02:46:23;0.67;;;0.67;;
10191;SDS011;17580;50.850;4.504;2022-12-29T02:48:55;0.90;;;0.77;;
10191;SDS011;17580;50.850;4.504;2022-12-29T02:51:42;1.83;;;0.70;;
10191;SDS011;17580;50.850;4.504;2022-12-29T02:54:13;2.00;;;0.57;;
10191;SDS011;17580;50.850;4.504;2022-12-29T02:57:00;0.43;;;0.43;;
10191;SDS011;17580;50.850;4.504;2022-12-29T02:59:27;2.83;;;0.80;;
10191;SDS011;17580;50.850;4.504;2022-12-29T03:02:03;0.80;;;0.80;;
10191;SDS011;17580;50.850;4.504;2022-12-29T03:04:46;1.13;;;0.60;;
10191;SDS011;17580;50.850;4.504;2022-12-29T03:07:21;1.43;;;0.80;;
10191;SDS011;17580;50.850;4.504;2022-12-29T03:09:52;1.30;;;0.80;;
10191;SDS011;17580;50.850;4.504;2022-12-29T03:12:28;3.60;;;0.70;;
10191;SDS011;17580;50.850;4.504;2022-12-29T03:15:16;1.20;;;0.70;;
10191;SDS011;17580;50.850;4.504;2022-12-29T03:18:09;1.40;;;1.30;;
10191;SDS011;17580;50.850;4.504;2022-12-29T03:20:42;4.23;;;0.90;;
10191;SDS011;17580;50.850;4.504;2022-12-29T03:23:14;4.10;;;1.27;;
10191;SDS011;17580;50.850;4.504;2022-12-29T03:25:43;1.40;;;0.93;;
10191;SDS011;17580;50.850;4.504;2022-12-29T03:28:14;2.77;;;0.97;;
10191;SDS011;17580;50.850;4.504;2022-12-29T03:30:46;2.93;;;0.73;;
10191;SDS011;17580;50.850;4.504;2022-12-29T03:33:15;1.37;;;0.60;;
10191;SDS011;17580;50.850;4.504;2022-12-29T03:35:45;4.43;;;0.77;;
10191;SDS011;17580;50.850;4.504;2022-12-29T03:38:14;1.90;;;0.90;;
10191;SDS011;17580;50.850;4.504;2022-12-29T03:40:45;1.80;;;0.90;;
10191;SDS011;17580;50.850;4.504;2022-12-29T03:43:15;1.50;;;0.80;;
10191;SDS011;17580;50.850;4.504;2022-12-29T03:45:43;3.03;;;1.17;;
10191;SDS011;17580;50.850;4.504;2022-12-29T03:48:10;2.23;;;0.83;;
10191;SDS011;17580;50.850;4.504;2022-12-29T03:50:39;1.60;;;0.80;;
10191;SDS011;17580;50.850;4.504;2022-12-29T03:53:05;4.43;;;1.27;;
10191;SDS011;17580;50.850;4.504;2022-12-29T03:55:32;2.10;;;0.90;;
10191;SDS011;17580;50.850;4.504;2022-12-29T03:57:59;1.80;;;0.90;;
10191;SDS011;17580;50.850;4.504;2022-12-29T04:00:26;5.73;;;1.40;;
10191;SDS011;17580;50.850;4.504;2022-12-29T04:02:54;3.50;;;1.17;;
10191;SDS011;17580;50.850;4.504;2022-12-29T04:05:21;3.67;;;1.43;;
10191;SDS011;17580;50.850;4.504;2022-12-29T04:07:49;5.60;;;1.50;;
10191;SDS011;17580;50.850;4.504;2022-12-29T04:10:17;3.37;;;1.30;;
10191;SDS011;17580;50.850;4.504;2022-12-29T04:12:43;2.83;;;1.13;;
10191;SDS011;17580;50.850;4.504;2022-12-29T04:15:11;1.37;;;0.83;;
10191;SDS011;17580;50.850;4.504;2022-12-29T04:17:38;3.43;;;1.00;;
10191;SDS011;17580;50.850;4.504;2022-12-29T04:20:06;3.97;;;1.07;;
10191;SDS011;17580;50.850;4.504;2022-12-29T04:22:58;4.20;;;1.10;;
10191;SDS011;17580;50.850;4.504;2022-12-29T04:25:26;1.13;;;1.10;;
10191;SDS011;17580;50.850;4.504;2022-12-29T04:27:53;1.13;;;1.03;;
10191;SDS011;17580;50.850;4.504;2022-12-29T04:30:19;3.30;;;1.30;;
10191;SDS011;17580;50.850;4.504;2022-12-29T04:32:46;1.70;;;1.07;;
10191;SDS011;17580;50.850;4.504;2022-12-29T04:35:14;3.03;;;0.90;;
10191;SDS011;17580;50.850;4.504;2022-12-29T04:37:41;4.17;;;1.20;;
10191;SDS011;17580;50.850;4.504;2022-12-29T04:40:10;2.47;;;1.13;;
10191;SDS011;17580;50.850;4.504;2022-12-29T04:42:38;2.60;;;1.30;;
10191;SDS011;17580;50.850;4.504;2022-12-29T04:45:05;5.10;;;1.27;;
10191;SDS011;17580;50.850;4.504;2022-12-29T04:47:33;1.50;;;1.00;;
10191;SDS011;17580;50.850;4.504;2022-12-29T04:50:00;1.97;;;1.23;;
10191;SDS011;17580;50.850;4.504;2022-12-29T04:52:27;5.03;;;1.30;;
10191;SDS011;17580;50.850;4.504;2022-12-29T04:54:54;2.30;;;1.13;;
10191;SDS011;17580;50.850;4.504;2022-12-29T04:57:22;3.77;;;1.13;;
10191;SDS011;17580;50.850;4.504;2022-12-29T04:59:49;4.40;;;1.50;;
10191;SDS011;17580;50.850;4.504;2022-12-29T05:02:16;3.97;;;0.83;;
10191;SDS011;17580;50.850;4.504;2022-12-29T05:04:43;2.17;;;1.10;;
10191;SDS011;17580;50.850;4.504;2022-12-29T05:07:10;3.10;;;1.23;;
10191;SDS011;17580;50.850;4.504;2022-12-29T05:09:37;10.73;;;1.80;;
10191;SDS011;17580;50.850;4.504;2022-12-29T05:12:05;3.73;;;1.57;;
10191;SDS011;17580;50.850;4.504;2022-12-29T05:14:33;2.20;;;1.20;;
10191;SDS011;17580;50.850;4.504;2022-12-29T05:17:00;1.70;;;1.23;;
10191;SDS011;17580;50.850;4.504;2022-12-29T05:19:27;4.03;;;1.50;;
10191;SDS011;17580;50.850;4.504;2022-12-29T05:21:54;5.53;;;1.43;;
10191;SDS011;17580;50.850;4.504;2022-12-29T05:24:21;7.03;;;2.03;;
10191;SDS011;17580;50.850;4.504;2022-12-29T05:26:48;3.33;;;1.30;;
10191;SDS011;17580;50.850;4.504;2022-12-29T05:29:15;4.33;;;1.30;;
10191;SDS011;17580;50.850;4.504;2022-12-29T05:31:43;1.63;;;1.07;;
10191;SDS011;17580;50.850;4.504;2022-12-29T05:34:10;2.37;;;1.07;;
10191;SDS011;17580;50.850;4.504;2022-12-29T05:36:37;4.33;;;1.60;;
10191;SDS011;17580;50.850;4.504;2022-12-29T05:39:04;7.43;;;1.33;;
10191;SDS011;17580;50.850;4.504;2022-12-29T05:41:32;6.87;;;1.97;;
10191;SDS011;17580;50.850;4.504;2022-12-29T05:44:00;3.07;;;1.50;;
10191;SDS011;17580;50.850;4.504;2022-12-29T05:46:27;4.73;;;1.30;;
10191;SDS011;17580;50.850;4.504;2022-12-29T05:48:55;10.27;;;1.93;;
10191;SDS011;17580;50.850;4.504;2022-12-29T05:51:22;6.30;;;1.77;;
10191;SDS011;17580;50.850;4.504;2022-12-29T05:53:49;5.80;;;2.07;;
10191;SDS011;17580;50.850;4.504;2022-12-29T05:56:16;4.77;;;1.47;;
10191;SDS011;17580;50.850;4.504;2022-12-29T05:58:43;5.27;;;1.60;;
10191;SDS011;17580;50.850;4.504;2022-12-29T06:01:10;3.33;;;1.30;;
10191;SDS011;17580;50.850;4.504;2022-12-29T06:03:37;6.03;;;2.10;;
10191;SDS011;17580;50.850;4.504;2022-12-29T06:06:06;7.88;;;1.83;;
10191;SDS011;17580;50.850;4.504;2022-12-29T06:08:33;6.53;;;1.90;;
10191;SDS011;17580;50.850;4.504;2022-12-29T06:11:00;4.90;;;1.90;;
10191;SDS011;17580;50.850;4.504;2022-12-29T06:13:27;4.53;;;1.70;;
10191;SDS011;17580;50.850;4.504;2022-12-29T06:15:54;3.70;;;1.67;;
10191;SDS011;17580;50.850;4.504;2022-12-29T06:18:21;4.77;;;1.73;;
10191;SDS011;17580;50.850;4.504;2022-12-29T06:20:48;5.27;;;1.97;;
10191;SDS011;17580;50.850;4.504;2022-12-29T06:23:16;6.07;;;1.63;;
10191;SDS011;17580;50.850;4.504;2022-12-29T06:25:44;4.77;;;1.40;;
10191;SDS011;17580;50.850;4.504;2022-12-29T06:28:13;3.70;;;1.70;;
10191;SDS011;17580;50.850;4.504;2022-12-29T06:30:42;7.57;;;1.97;;
10191;SDS011;17580;50.850;4.504;2022-12-29T06:33:10;4.67;;;1.40;;
10191;SDS011;17580;50.850;4.504;2022-12-29T06:35:37;4.73;;;1.90;;
10191;SDS011;17580;50.850;4.504;2022-12-29T06:38:04;6.93;;;1.53;;
10191;SDS011;17580;50.850;4.504;2022-12-29T06:40:33;8.30;;;1.80;;
10191;SDS011;17580;50.850;4.504;2022-12-29T06:43:00;5.77;;;2.07;;
10191;SDS011;17580;50.850;4.504;2022-12-29T06:45:27;5.33;;;1.70;;
10191;SDS011;17580;50.850;4.504;2022-12-29T06:47:54;3.50;;;1.37;;
10191;SDS011;17580;50.850;4.504;2022-12-29T06:50:21;7.97;;;1.67;;
10191;SDS011;17580;50.850;4.504;2022-12-29T06:52:48;6.53;;;1.80;;
10191;SDS011;17580;50.850;4.504;2022-12-29T06:55:15;6.20;;;1.70;;
10191;SDS011;17580;50.850;4.504;2022-12-29T06:57:43;6.93;;;1.80;;
10191;SDS011;17580;50.850;4.504;2022-12-29T07:00:10;8.40;;;1.93;;
10191;SDS011;17580;50.850;4.504;2022-12-29T07:02:38;5.57;;;1.97;;
10191;SDS011;17580;50.850;4.504;2022-12-29T07:05:05;4.70;;;1.60;;
10191;SDS011;17580;50.850;4.504;2022-12-29T07:07:34;5.03;;;1.80;;
10191;SDS011;17580;50.850;4.504;2022-12-29T07:10:01;5.50;;;2.17;;
10191;SDS011;17580;50.850;4.504;2022-12-29T07:12:29;5.97;;;1.83;;
10191;SDS011;17580;50.850;4.504;2022-12-29T07:14:57;13.80;;;3.43;;
10191;SDS011;17580;50.850;4.504;2022-12-29T07:17:24;6.60;;;2.30;;
10191;SDS011;17580;50.850;4.504;2022-12-29T07:19:51;4.90;;;1.83;;
10191;SDS011;17580;50.850;4.504;2022-12-29T07:22:18;4.00;;;1.40;;
10191;SDS011;17580;50.850;4.504;2022-12-29T07:24:45;5.97;;;1.77;;
10191;SDS011;17580;50.850;4.504;2022-12-29T07:27:12;14.30;;;1.93;;
10191;SDS011;17580;50.850;4.504;2022-12-29T07:29:39;7.43;;;1.83;;
10191;SDS011;17580;50.850;4.504;2022-12-29T07:32:07;2.57;;;1.70;;
10191;SDS011;17580;50.850;4.504;2022-12-29T07:34:34;6.60;;;2.33;;
10191;SDS011;17580;50.850;4.504;2022-12-29T07:37:01;4.20;;;1.87;;
10191;SDS011;17580;50.850;4.504;2022-12-29T07:39:28;7.00;;;1.77;;
10191;SDS011;17580;50.850;4.504;2022-12-29T07:41:55;11.63;;;2.03;;
10191;SDS011;17580;50.850;4.504;2022-12-29T07:44:22;9.57;;;2.07;;
10191;SDS011;17580;50.850;4.504;2022-12-29T07:46:49;5.33;;;1.97;;
10191;SDS011;17580;50.850;4.504;2022-12-29T07:49:17;9.20;;;2.40;;
10191;SDS011;17580;50.850;4.504;2022-12-29T07:51:44;6.27;;;2.00;;
10191;SDS011;17580;50.850;4.504;2022-12-29T07:54:11;6.67;;;1.80;;
10191;SDS011;17580;50.850;4.504;2022-12-29T07:56:39;5.27;;;1.80;;
10191;SDS011;17580;50.850;4.504;2022-12-29T07:59:06;8.53;;;1.83;;
10191;SDS011;17580;50.850;4.504;2022-12-29T08:01:33;6.20;;;2.10;;
10191;SDS011;17580;50.850;4.504;2022-12-29T08:04:00;7.50;;;2.17;;
10191;SDS011;17580;50.850;4.504;2022-12-29T08:06:28;7.10;;;2.30;;
10191;SDS011;17580;50.850;4.504;2022-12-29T08:08:55;7.07;;;2.07;;
10191;SDS011;17580;50.850;4.504;2022-12-29T08:11:23;3.60;;;2.03;;
10191;SDS011;17580;50.850;4.504;2022-12-29T08:13:50;5.43;;;2.40;;
10191;SDS011;17580;50.850;4.504;2022-12-29T08:16:17;8.07;;;1.87;;
10191;SDS011;17580;50.850;4.504;2022-12-29T08:18:44;8.13;;;2.10;;
10191;SDS011;17580;50.850;4.504;2022-12-29T08:21:12;6.13;;;1.60;;
10191;SDS011;17580;50.850;4.504;2022-12-29T08:23:40;6.03;;;1.83;;
10191;SDS011;17580;50.850;4.504;2022-12-29T08:26:07;8.83;;;2.20;;
10191;SDS011;17580;50.850;4.504;2022-12-29T08:28:34;3.83;;;1.87;;
10191;SDS011;17580;50.850;4.504;2022-12-29T08:31:01;4.30;;;1.83;;
10191;SDS011;17580;50.850;4.504;2022-12-29T08:33:29;9.10;;;1.87;;
10191;SDS011;17580;50.850;4.504;2022-12-29T08:35:58;8.33;;;2.13;;
10191;SDS011;17580;50.850;4.504;2022-12-29T08:38:26;6.87;;;2.03;;
10191;SDS011;17580;50.850;4.504;2022-12-29T08:40:55;5.73;;;2.03;;
10191;SDS011;17580;50.850;4.504;2022-12-29T08:43:23;6.60;;;2.30;;
10191;SDS011;17580;50.850;4.504;2022-12-29T08:45:50;4.90;;;1.67;;
10191;SDS011;17580;50.850;4.504;2022-12-29T08:48:18;6.13;;;2.00;;
10191;SDS011;17580;50.850;4.504;2022-12-29T08:50:47;8.90;;;2.43;;
10191;SDS011;17580;50.850;4.504;2022-12-29T08:53:15;8.20;;;1.83;;
10191;SDS011;17580;50.850;4.504;2022-12-29T08:55:44;6.40;;;1.60;;
10191;SDS011;17580;50.850;4.504;2022-12-29T08:58:13;7.67;;;2.23;;
10191;SDS011;17580;50.850;4.504;2022-12-29T09:00:41;5.20;;;2.00;;
10191;SDS011;17580;50.850;4.504;2022-12-29T09:03:08;8.33;;;2.47;;
10191;SDS011;17580;50.850;4.504;2022-12-29T09:05:36;7.57;;;2.00;;
10191;SDS011;17580;50.850;4.504;2022-12-29T09:08:03;8.90;;;2.37;;
10191;SDS011;17580;50.850;4.504;2022-12-29T09:10:30;5.67;;;2.10;;
10191;SDS011;17580;50.850;4.504;2022-12-29T09:12:57;6.47;;;2.13;;
10191;SDS011;17580;50.850;4.504;2022-12-29T09:15:26;4.60;;;2.00;;
10191;SDS011;17580;50.850;4.504;2022-12-29T09:17:53;5.67;;;2.27;;
10191;SDS011;17580;50.850;4.504;2022-12-29T09:20:20;8.23;;;2.20;;
10191;SDS011;17580;50.850;4.504;2022-12-29T09:22:47;9.03;;;2.47;;
10191;SDS011;17580;50.850;4.504;2022-12-29T09:25:15;7.83;;;2.60;;
10191;SDS011;17580;50.850;4.504;2022-12-29T09:27:42;8.80;;;1.90;;
10191;SDS011;17580;50.850;4.504;2022-12-29T09:30:10;6.93;;;2.10;;
10191;SDS011;17580;50.850;4.504;2022-12-29T09:32:40;6.97;;;2.20;;
10191;SDS011;17580;50.850;4.504;2022-12-29T09:35:07;12.57;;;2.90;;
10191;SDS011;17580;50.850;4.504;2022-12-29T09:37:35;7.27;;;2.30;;
10191;SDS011;17580;50.850;4.504;2022-12-29T09:40:02;13.47;;;2.50;;
10191;SDS011;17580;50.850;4.504;2022-12-29T09:42:32;8.77;;;2.13;;
10191;SDS011;17580;50.850;4.504;2022-12-29T09:45:08;8.77;;;2.30;;
10191;SDS011;17580;50.850;4.504;2022-12-29T09:47:41;7.90;;;3.00;;
10191;SDS011;17580;50.850;4.504;2022-12-29T09:50:11;8.67;;;2.70;;
10191;SDS011;17580;50.850;4.504;2022-12-29T09:52:47;8.10;;;2.57;;
10191;SDS011;17580;50.850;4.504;2022-12-29T09:55:17;8.57;;;2.27;;
10191;SDS011;17580;50.850;4.504;2022-12-29T09:57:47;8.93;;;2.40;;
10191;SDS011;17580;50.850;4.504;2022-12-29T10:00:19;4.20;;;2.10;;
10191;SDS011;17580;50.850;4.504;2022-12-29T10:02:50;8.23;;;2.43;;
10191;SDS011;17580;50.850;4.504;2022-12-29T10:05:22;6.07;;;2.20;;
10191;SDS011;17580;50.850;4.504;2022-12-29T10:08:00;6.60;;;2.03;;
10191;SDS011;17580;50.850;4.504;2022-12-29T10:10:43;10.30;;;2.40;;
10191;SDS011;17580;50.850;4.504;2022-12-29T10:13:20;8.30;;;2.43;;
10191;SDS011;17580;50.850;4.504;2022-12-29T10:15:56;4.83;;;2.13;;
10191;SDS011;17580;50.850;4.504;2022-12-29T10:18:35;8.80;;;3.07;;
10191;SDS011;17580;50.850;4.504;2022-12-29T10:21:17;4.87;;;1.90;;
10191;SDS011;17580;50.850;4.504;2022-12-29T10:23:52;5.27;;;2.43;;
10191;SDS011;17580;50.850;4.504;2022-12-29T10:26:21;5.97;;;2.20;;
10191;SDS011;17580;50.850;4.504;2022-12-29T10:28:53;7.33;;;2.67;;
10191;SDS011;17580;50.850;4.504;2022-12-29T10:31:23;7.40;;;2.40;;
10191;SDS011;17580;50.850;4.504;2022-12-29T10:33:57;10.00;;;1.90;;
10191;SDS011;17580;50.850;4.504;2022-12-29T10:36:28;9.00;;;2.03;;
10191;SDS011;17580;50.850;4.504;2022-12-29T10:39:02;17.67;;;3.27;;
10191;SDS011;17580;50.850;4.504;2022-12-29T10:41:38;7.30;;;1.97;;
10191;SDS011;17580;50.850;4.504;2022-12-29T10:44:08;3.90;;;1.70;;
10191;SDS011;17580;50.850;4.504;2022-12-29T10:46:39;10.00;;;2.67;;
10191;SDS011;17580;50.850;4.504;2022-12-29T10:49:10;3.77;;;2.43;;
10191;SDS011;17580;50.850;4.504;2022-12-29T10:51:43;6.10;;;2.33;;
10191;SDS011;17580;50.850;4.504;2022-12-29T10:54:14;7.63;;;2.63;;
10191;SDS011;17580;50.850;4.504;2022-12-29T10:56:46;5.00;;;2.03;;
10191;SDS011;17580;50.850;4.504;2022-12-29T10:59:18;5.00;;;2.53;;
10191;SDS011;17580;50.850;4.504;2022-12-29T11:01:50;5.10;;;2.20;;
10191;SDS011;17580;50.850;4.504;2022-12-29T11:04:35;9.33;;;2.57;;
10191;SDS011;17580;50.850;4.504;2022-12-29T11:07:12;9.63;;;2.47;;
10191;SDS011;17580;50.850;4.504;2022-12-29T11:09:42;7.90;;;2.23;;
10191;SDS011;17580;50.850;4.504;2022-12-29T11:12:21;7.80;;;2.83;;
10191;SDS011;17580;50.850;4.504;2022-12-29T11:15:11;7.70;;;2.67;;
10191;SDS011;17580;50.850;4.504;2022-12-29T11:17:44;6.90;;;2.67;;
10191;SDS011;17580;50.850;4.504;2022-12-29T11:23:03;6.90;;;2.27;;
10191;SDS011;17580;50.850;4.504;2022-12-29T11:25:31;8.70;;;2.47;;
10191;SDS011;17580;50.850;4.504;2022-12-29T11:27:59;9.57;;;2.63;;
10191;SDS011;17580;50.850;4.504;2022-12-29T11:30:29;7.37;;;2.90;;
10191;SDS011;17580;50.850;4.504;2022-12-29T11:32:57;6.97;;;2.70;;
10191;SDS011;17580;50.850;4.504;2022-12-29T11:35:29;5.73;;;2.50;;
10191;SDS011;17580;50.850;4.504;2022-12-29T11:37:59;8.80;;;2.27;;
10191;SDS011;17580;50.850;4.504;2022-12-29T11:40:27;7.70;;;2.60;;
10191;SDS011;17580;50.850;4.504;2022-12-29T11:42:55;9.80;;;2.90;;
10191;SDS011;17580;50.850;4.504;2022-12-29T11:45:25;6.90;;;2.40;;
10191;SDS011;17580;50.850;4.504;2022-12-29T11:47:55;10.23;;;2.87;;
10191;SDS011;17580;50.850;4.504;2022-12-29T11:50:25;6.10;;;2.37;;
10191;SDS011;17580;50.850;4.504;2022-12-29T11:52:57;8.47;;;2.30;;
10191;SDS011;17580;50.850;4.504;2022-12-29T11:55:27;10.43;;;3.10;;
10191;SDS011;17580;50.850;4.504;2022-12-29T11:57:57;7.10;;;2.40;;
10191;SDS011;17580;50.850;4.504;2022-12-29T12:00:27;6.67;;;2.00;;
10191;SDS011;17580;50.850;4.504;2022-12-29T12:02:57;6.63;;;2.37;;
10191;SDS011;17580;50.850;4.504;2022-12-29T12:05:29;6.13;;;2.40;;
10191;SDS011;17580;50.850;4.504;2022-12-29T12:08:07;3.97;;;1.63;;
10191;SDS011;17580;50.850;4.504;2022-12-29T12:10:39;11.87;;;2.67;;
10191;SDS011;17580;50.850;4.504;2022-12-29T12:13:22;7.30;;;2.03;;
10191;SDS011;17580;50.850;4.504;2022-12-29T12:15:54;10.63;;;2.67;;
10191;SDS011;17580;50.850;4.504;2022-12-29T12:18:27;9.50;;;2.10;;
10191;SDS011;17580;50.850;4.504;2022-12-29T12:21:04;8.43;;;2.47;;
10191;SDS011;17580;50.850;4.504;2022-12-29T12:23:40;6.00;;;2.40;;
10191;SDS011;17580;50.850;4.504;2022-12-29T12:26:20;8.53;;;2.27;;
10191;SDS011;17580;50.850;4.504;2022-12-29T12:28:56;7.17;;;2.33;;
10191;SDS011;17580;50.850;4.504;2022-12-29T12:31:30;7.70;;;2.90;;
10191;SDS011;17580;50.850;4.504;2022-12-29T12:34:10;8.30;;;2.27;;
10191;SDS011;17580;50.850;4.504;2022-12-29T12:36:52;5.30;;;2.23;;
10191;SDS011;17580;50.850;4.504;2022-12-29T12:39:30;6.77;;;2.30;;
10191;SDS011;17580;50.850;4.504;2022-12-29T12:42:11;6.57;;;2.20;;
10191;SDS011;17580;50.850;4.504;2022-12-29T12:44:51;7.43;;;2.23;;
10191;SDS011;17580;50.850;4.504;2022-12-29T12:47:29;4.33;;;2.20;;
10191;SDS011;17580;50.850;4.504;2022-12-29T12:50:14;8.03;;;2.37;;
10191;SDS011;17580;50.850;4.504;2022-12-29T12:53:07;9.50;;;2.40;;
10191;SDS011;17580;50.850;4.504;2022-12-29T12:55:56;12.73;;;2.90;;
10191;SDS011;17580;50.850;4.504;2022-12-29T12:58:31;10.93;;;2.33;;
10191;SDS011;17580;50.850;4.504;2022-12-29T13:01:10;7.40;;;2.07;;
10191;SDS011;17580;50.850;4.504;2022-12-29T13:03:45;2.90;;;1.60;;
10191;SDS011;17580;50.850;4.504;2022-12-29T13:06:22;9.77;;;2.47;;
10191;SDS011;17580;50.850;4.504;2022-12-29T13:09:09;7.20;;;1.90;;
10191;SDS011;17580;50.850;4.504;2022-12-29T13:12:00;9.33;;;2.30;;
10191;SDS011;17580;50.850;4.504;2022-12-29T13:14:37;8.57;;;3.37;;
10191;SDS011;17580;50.850;4.504;2022-12-29T13:17:13;7.17;;;2.60;;
10191;SDS011;17580;50.850;4.504;2022-12-29T13:19:48;10.67;;;2.60;;
10191;SDS011;17580;50.850;4.504;2022-12-29T13:22:21;6.13;;;2.30;;
10191;SDS011;17580;50.850;4.504;2022-12-29T13:24:58;7.73;;;2.20;;
10191;SDS011;17580;50.850;4.504;2022-12-29T13:27:42;6.80;;;2.30;;
10191;SDS011;17580;50.850;4.504;2022-12-29T13:30:15;5.93;;;2.33;;
10191;SDS011;17580;50.850;4.504;2022-12-29T13:32:48;8.63;;;2.33;;
10191;SDS011;17580;50.850;4.504;2022-12-29T13:35:26;6.93;;;2.20;;
10191;SDS011;17580;50.850;4.504;2022-12-29T13:38:03;7.73;;;2.20;;
10191;SDS011;17580;50.850;4.504;2022-12-29T13:40:36;8.50;;;2.93;;
10191;SDS011;17580;50.850;4.504;2022-12-29T13:43:08;6.43;;;2.60;;
10191;SDS011;17580;50.850;4.504;2022-12-29T13:45:36;7.20;;;2.57;;
10191;SDS011;17580;50.850;4.504;2022-12-29T13:48:05;9.60;;;2.73;;
10191;SDS011;17580;50.850;4.504;2022-12-29T13:50:36;8.93;;;2.63;;
10191;SDS011;17580;50.850;4.504;2022-12-29T13:53:06;6.33;;;2.33;;
10191;SDS011;17580;50.850;4.504;2022-12-29T13:55:45;6.27;;;1.87;;
10191;SDS011;17580;50.850;4.504;2022-12-29T13:58:24;7.10;;;2.83;;
10191;SDS011;17580;50.850;4.504;2022-12-29T14:00:58;16.03;;;3.70;;
10191;SDS011;17580;50.850;4.504;2022-12-29T14:03:39;4.70;;;2.63;;
10191;SDS011;17580;50.850;4.504;2022-12-29T14:06:18;11.50;;;2.53;;
10191;SDS011;17580;50.850;4.504;2022-12-29T14:08:49;10.40;;;2.60;;
10191;SDS011;17580;50.850;4.504;2022-12-29T14:11:18;6.33;;;2.40;;
10191;SDS011;17580;50.850;4.504;2022-12-29T14:13:50;6.87;;;2.43;;
10191;SDS011;17580;50.850;4.504;2022-12-29T14:16:25;8.33;;;2.87;;
10191;SDS011;17580;50.850;4.504;2022-12-29T14:18:54;9.63;;;2.80;;
10191;SDS011;17580;50.850;4.504;2022-12-29T14:21:23;10.03;;;2.70;;
10191;SDS011;17580;50.850;4.504;2022-12-29T14:23:56;10.40;;;3.13;;
10191;SDS011;17580;50.850;4.504;2022-12-29T14:26:42;10.67;;;2.43;;
10191;SDS011;17580;50.850;4.504;2022-12-29T14:29:41;11.77;;;3.30;;
10191;SDS011;17580;50.850;4.504;2022-12-29T14:38:07;6.23;;;2.40;;
10191;SDS011;17580;50.850;4.504;2022-12-29T14:46:47;7.57;;;2.83;;
10191;SDS011;17580;50.850;4.504;2022-12-29T14:49:21;11.33;;;2.70;;
10191;SDS011;17580;50.850;4.504;2022-12-29T14:51:52;8.53;;;2.67;;
10191;SDS011;17580;50.850;4.504;2022-12-29T14:57:10;10.40;;;2.43;;
10191;SDS011;17580;50.850;4.504;2022-12-29T14:59:44;8.13;;;2.57;;
10191;SDS011;17580;50.850;4.504;2022-12-29T15:02:15;11.80;;;2.77;;
10191;SDS011;17580;50.850;4.504;2022-12-29T15:04:45;9.13;;;2.67;;
10191;SDS011;17580;50.850;4.504;2022-12-29T15:07:13;7.23;;;2.17;;
10191;SDS011;17580;50.850;4.504;2022-12-29T15:09:42;4.83;;;1.83;;
10191;SDS011;17580;50.850;4.504;2022-12-29T15:12:17;7.20;;;2.23;;
10191;SDS011;17580;50.850;4.504;2022-12-29T15:14:49;5.43;;;2.00;;
10191;SDS011;17580;50.850;4.504;2022-12-29T15:17:25;6.70;;;2.17;;
10191;SDS011;17580;50.850;4.504;2022-12-29T15:19:54;4.27;;;1.77;;
10191;SDS011;17580;50.850;4.504;2022-12-29T15:22:22;1.57;;;1.30;;
10191;SDS011;17580;50.850;4.504;2022-12-29T15:24:50;3.70;;;1.53;;
10191;SDS011;17580;50.850;4.504;2022-12-29T15:27:19;1.53;;;1.37;;
10191;SDS011;17580;50.850;4.504;2022-12-29T15:29:52;5.27;;;1.80;;
10191;SDS011;17580;50.850;4.504;2022-12-29T15:32:24;4.27;;;1.27;;